createdAt,value
2017-07-08T00:02:02.895Z,15.03
2017-07-08T00:04:31.208Z,12.80
2017-07-08T00:06:59.537Z,17.43
2017-07-08T00:09:27.842Z,26.53
2017-07-08T00:11:56.193Z,38.50
2017-07-08T00:14:24.513Z,20.43
2017-07-08T00:16:52.848Z,28.70
2017-07-08T00:19:21.193Z,17.10
2017-07-08T00:21:49.553Z,27.83
2017-07-08T00:24:17.874Z,16.27
2017-07-08T00:26:46.198Z,12.80
2017-07-08T00:29:14.534Z,19.53
2017-07-08T00:31:42.849Z,26.53
2017-07-08T00:34:11.188Z,18.00
2017-07-08T00:36:39.520Z,29.40
2017-07-08T00:39:07.879Z,26.03
2017-07-08T00:41:36.203Z,20.93
2017-07-08T00:44:04.557Z,14.53
2017-07-08T00:46:32.891Z,23.03
2017-07-08T00:49:01.283Z,26.17
2017-07-08T00:51:29.594Z,32.77
2017-07-08T00:53:57.909Z,17.20
2017-07-08T00:56:26.242Z,26.77
2017-07-08T00:58:54.561Z,26.23
2017-07-08T01:01:22.904Z,22.33
2017-07-08T01:03:51.247Z,19.40
2017-07-08T01:06:19.585Z,18.07
2017-07-08T01:08:47.899Z,28.83
2017-07-08T01:11:16.252Z,26.37
2017-07-08T01:13:44.589Z,32.17
2017-07-08T01:16:12.971Z,24.83
2017-07-08T01:18:41.290Z,26.77
2017-07-08T01:21:09.613Z,19.50
2017-07-08T01:23:37.964Z,24.90
2017-07-08T01:26:06.315Z,30.57
2017-07-08T01:28:34.657Z,10.97
2017-07-08T01:31:02.968Z,16.23
2017-07-08T01:33:31.323Z,20.67
2017-07-08T01:35:59.655Z,20.30
2017-07-08T01:38:28.016Z,24.30
2017-07-08T01:40:56.344Z,65.17
2017-07-08T01:43:24.667Z,39.27
2017-07-08T01:45:52.998Z,41.63
2017-07-08T01:48:21.335Z,35.73
2017-07-08T01:50:49.669Z,39.60
2017-07-08T01:53:17.985Z,48.13
2017-07-08T01:55:47.345Z,44.07
2017-07-08T01:58:15.673Z,51.17
2017-07-08T02:00:44.017Z,31.13
2017-07-08T02:03:12.361Z,37.90
2017-07-08T02:05:40.703Z,41.03
2017-07-08T02:08:09.081Z,50.37
2017-07-08T02:10:37.394Z,52.67
2017-07-08T02:13:05.745Z,42.87
2017-07-08T02:15:34.049Z,37.30
2017-07-08T02:18:02.406Z,38.33
2017-07-08T02:20:30.737Z,28.33
2017-07-08T02:22:59.155Z,52.83
2017-07-08T02:25:27.472Z,41.33
2017-07-08T02:27:55.814Z,68.90
2017-07-08T02:30:24.169Z,39.90
2017-07-08T02:32:52.513Z,41.70
2017-07-08T02:35:20.868Z,27.67
2017-07-08T02:37:49.245Z,33.73
2017-07-08T02:40:23.444Z,47.23
2017-07-08T02:42:51.761Z,43.40
2017-07-08T02:45:20.089Z,53.37
2017-07-08T02:47:48.418Z,61.20
2017-07-08T02:50:16.754Z,47.67
2017-07-08T02:52:45.075Z,45.03
2017-07-08T02:55:13.445Z,43.77
2017-07-08T02:57:41.767Z,34.77
2017-07-08T03:00:10.103Z,56.57
2017-07-08T03:02:38.512Z,45.10
2017-07-08T03:08:07.834Z,50.70
2017-07-08T03:10:36.156Z,38.33
2017-07-08T03:13:04.490Z,40.03
2017-07-08T03:15:32.809Z,55.97
2017-07-08T03:18:01.133Z,37.47
2017-07-08T03:20:29.441Z,39.50
2017-07-08T03:22:57.763Z,66.13
2017-07-08T03:25:26.081Z,41.50
2017-07-08T03:27:54.382Z,45.03
2017-07-08T03:30:22.754Z,60.23
2017-07-08T03:32:51.067Z,73.80
2017-07-08T03:35:19.404Z,44.63
2017-07-08T03:37:47.712Z,48.27
2017-07-08T03:40:16.054Z,32.40
2017-07-08T03:42:44.366Z,46.03
2017-07-08T03:45:12.734Z,46.50
2017-07-08T03:47:41.056Z,49.27
2017-07-08T03:50:09.394Z,84.30
2017-07-08T03:52:37.712Z,55.90
2017-07-08T03:55:06.026Z,45.77
2017-07-08T03:57:34.386Z,41.57
2017-07-08T04:00:02.696Z,44.87
2017-07-08T04:02:31.033Z,57.53
2017-07-08T04:04:59.346Z,43.40
2017-07-08T04:07:27.680Z,69.73
2017-07-08T04:09:55.992Z,55.13
2017-07-08T04:12:24.317Z,65.40
2017-07-08T04:14:53.589Z,51.27
2017-07-08T04:17:21.914Z,55.03
2017-07-08T04:19:50.244Z,39.60
2017-07-08T04:22:18.575Z,46.60
2017-07-08T04:24:46.933Z,59.73
2017-07-08T04:27:15.249Z,57.13
2017-07-08T04:29:43.591Z,65.40
2017-07-08T04:32:12.026Z,57.33
2017-07-08T04:34:40.376Z,44.43
2017-07-08T04:37:08.698Z,70.33
2017-07-08T04:39:37.049Z,35.23
2017-07-08T04:42:05.365Z,47.00
2017-07-08T04:44:33.700Z,57.10
2017-07-08T04:47:02.034Z,43.70
2017-07-08T04:49:31.329Z,52.47
2017-07-08T04:51:59.660Z,33.47
2017-07-08T04:54:27.977Z,50.90
2017-07-08T04:56:56.310Z,50.67
2017-07-08T04:59:24.651Z,48.03
2017-07-08T05:01:53.076Z,48.80
2017-07-08T05:04:21.390Z,36.67
2017-07-08T05:06:49.742Z,44.87
2017-07-08T05:09:18.063Z,41.93
2017-07-08T05:11:46.399Z,47.00
2017-07-08T05:14:14.729Z,45.40
2017-07-08T05:16:43.120Z,36.67
2017-07-08T05:19:11.444Z,62.50
2017-07-08T05:21:39.754Z,32.77
2017-07-08T05:24:08.086Z,59.00
2017-07-08T05:26:36.405Z,48.17
2017-07-08T05:29:04.753Z,25.97
2017-07-08T05:31:33.089Z,30.23
2017-07-08T05:34:01.406Z,46.23
2017-07-08T05:36:29.749Z,35.53
2017-07-08T05:38:58.056Z,36.13
2017-07-08T05:41:27.408Z,28.90
2017-07-08T05:43:55.725Z,31.73
2017-07-08T05:46:24.063Z,28.57
2017-07-08T05:48:52.420Z,31.17
2017-07-08T05:51:20.769Z,20.97
2017-07-08T05:53:49.085Z,34.57
2017-07-08T05:56:17.431Z,26.97
2017-07-08T05:58:45.746Z,12.80
2017-07-08T06:01:14.124Z,24.27
2017-07-08T06:03:42.460Z,17.43
2017-07-08T06:06:10.777Z,16.77
2017-07-08T06:08:39.132Z,23.00
2017-07-08T06:11:07.463Z,26.50
2017-07-08T06:13:35.806Z,9.50
2017-07-08T06:16:04.123Z,16.77
2017-07-08T06:18:32.481Z,18.80
2017-07-08T06:21:00.871Z,9.00
2017-07-08T06:23:29.219Z,11.87
2017-07-08T06:25:57.534Z,25.13
2017-07-08T06:28:25.847Z,6.57
2017-07-08T06:30:54.206Z,10.87
2017-07-08T06:33:22.534Z,9.03
2017-07-08T06:35:50.882Z,11.80
2017-07-08T06:38:19.227Z,15.40
2017-07-08T06:40:47.555Z,17.10
2017-07-08T06:43:15.926Z,13.23
2017-07-08T06:45:44.253Z,17.27
2017-07-08T06:48:12.624Z,5.53
2017-07-08T06:50:40.959Z,9.87
2017-07-08T06:53:10.416Z,15.50
2017-07-08T06:55:38.717Z,27.97
2017-07-08T06:58:07.057Z,13.27
2017-07-08T07:00:35.366Z,7.63
2017-07-08T07:03:03.698Z,9.40
2017-07-08T07:05:32.008Z,10.23
2017-07-08T07:08:00.333Z,6.57
2017-07-08T07:10:28.647Z,6.40
2017-07-08T07:12:56.978Z,9.10
2017-07-08T07:15:25.285Z,6.07
2017-07-08T07:17:53.626Z,15.40
2017-07-08T07:20:21.961Z,7.50
2017-07-08T07:22:50.526Z,9.97
2017-07-08T07:25:18.886Z,6.93
2017-07-08T07:27:47.226Z,7.43
2017-07-08T07:30:15.541Z,6.30
2017-07-08T07:32:43.850Z,6.43
2017-07-08T07:35:12.190Z,10.23
2017-07-08T07:37:40.498Z,7.07
2017-07-08T07:40:08.815Z,8.20
2017-07-08T07:42:37.158Z,7.63
2017-07-08T07:45:06.585Z,5.00
2017-07-08T07:47:34.890Z,8.30
2017-07-08T07:50:03.207Z,5.67
2017-07-08T07:52:31.528Z,7.67
2017-07-08T07:54:59.837Z,6.50
2017-07-08T08:03:28.817Z,5.70
2017-07-08T08:05:57.117Z,4.23
2017-07-08T08:08:25.454Z,4.80
2017-07-08T08:10:53.766Z,7.70
2017-07-08T08:13:22.090Z,5.97
2017-07-08T08:15:50.416Z,7.53
2017-07-08T08:18:18.790Z,6.30
2017-07-08T08:20:47.109Z,3.73
2017-07-08T08:23:15.413Z,7.07
2017-07-08T08:25:43.806Z,3.80
2017-07-08T08:28:12.105Z,9.37
2017-07-08T08:30:40.438Z,8.67
2017-07-08T08:33:08.742Z,9.17
2017-07-08T08:35:37.078Z,6.10
2017-07-08T08:38:05.407Z,3.77
2017-07-08T08:40:33.773Z,5.03
2017-07-08T08:43:03.003Z,5.20
2017-07-08T08:45:31.349Z,6.30
2017-07-08T08:47:59.659Z,4.20
2017-07-08T08:50:27.972Z,3.90
2017-07-08T08:52:56.332Z,19.33
2017-07-08T08:55:24.664Z,5.07
2017-07-08T08:57:56.440Z,2.70
2017-07-08T09:00:24.755Z,4.43
2017-07-08T09:02:53.145Z,3.30
2017-07-08T09:05:21.433Z,3.00
2017-07-08T09:07:49.790Z,4.20
2017-07-08T09:10:18.102Z,2.50
2017-07-08T09:12:50.206Z,3.33
2017-07-08T09:15:18.539Z,2.47
2017-07-08T09:17:46.883Z,2.03
2017-07-08T09:20:15.217Z,4.40
2017-07-08T09:22:44.481Z,4.23
2017-07-08T09:25:12.807Z,2.70
2017-07-08T09:27:41.118Z,4.87
2017-07-08T09:30:09.444Z,4.00
2017-07-08T09:32:37.773Z,6.17
2017-07-08T09:35:06.096Z,4.00
2017-07-08T09:37:34.394Z,2.73
2017-07-08T09:40:02.708Z,2.27
2017-07-08T09:42:31.016Z,2.97
2017-07-08T09:44:59.360Z,3.33
2017-07-08T09:47:27.665Z,3.50
2017-07-08T09:49:55.993Z,7.90
2017-07-08T09:52:24.325Z,7.07
2017-07-08T09:54:52.671Z,2.20
2017-07-08T09:57:21.007Z,10.00
2017-07-08T09:59:49.319Z,6.10
2017-07-08T10:02:17.661Z,6.23
2017-07-08T10:04:45.974Z,2.40
2017-07-08T10:07:14.306Z,6.50
2017-07-08T10:09:42.626Z,1.70
2017-07-08T10:12:10.964Z,5.83
2017-07-08T10:14:39.270Z,2.53
2017-07-08T10:17:07.578Z,8.93
2017-07-08T10:19:35.912Z,2.27
2017-07-08T10:22:04.213Z,3.10
2017-07-08T10:24:32.537Z,4.77
2017-07-08T10:27:00.862Z,2.60
2017-07-08T10:29:29.194Z,2.90
2017-07-08T10:31:57.502Z,2.40
2017-07-08T10:34:25.830Z,7.13
2017-07-08T10:36:54.139Z,3.10
2017-07-08T10:39:22.520Z,2.87
2017-07-08T10:41:50.862Z,4.33
2017-07-08T10:44:19.162Z,1.83
2017-07-08T10:46:47.483Z,3.47
2017-07-08T10:49:15.785Z,2.57
2017-07-08T10:51:44.108Z,4.67
2017-07-08T10:54:12.440Z,8.80
2017-07-08T10:56:40.778Z,4.33
2017-07-08T10:59:09.094Z,3.10
2017-07-08T11:01:38.301Z,5.20
2017-07-08T11:04:06.596Z,2.73
2017-07-08T11:06:34.925Z,3.37
2017-07-08T11:09:03.238Z,2.60
2017-07-08T11:11:31.568Z,5.50
2017-07-08T11:13:59.883Z,2.33
2017-07-08T11:16:28.225Z,4.60
2017-07-08T11:18:56.529Z,4.33
2017-07-08T11:21:24.834Z,2.40
2017-07-08T11:23:53.164Z,6.50
2017-07-08T11:26:21.474Z,3.20
2017-07-08T11:28:49.819Z,5.97
2017-07-08T11:31:18.152Z,2.40
2017-07-08T11:33:47.449Z,9.10
2017-07-08T11:36:15.768Z,10.17
2017-07-08T11:38:45.144Z,4.83
2017-07-08T11:41:13.484Z,5.90
2017-07-08T11:43:41.798Z,2.30
2017-07-08T11:46:11.085Z,2.03
2017-07-08T11:48:39.529Z,1.80
2017-07-08T11:51:07.891Z,1.73
2017-07-08T11:53:36.206Z,1.60
2017-07-08T11:56:04.555Z,11.40
2017-07-08T11:58:32.876Z,1.57
2017-07-08T12:01:01.223Z,3.00
2017-07-08T12:03:29.531Z,3.67
2017-07-08T12:05:57.850Z,2.70
2017-07-08T12:08:26.202Z,10.20
2017-07-08T12:10:54.542Z,1.87
2017-07-08T12:13:22.882Z,4.40
2017-07-08T12:15:51.199Z,2.93
2017-07-08T12:18:19.526Z,4.00
2017-07-08T12:20:47.846Z,2.70
2017-07-08T12:23:16.178Z,1.30
2017-07-08T12:25:44.489Z,4.30
2017-07-08T12:28:13.837Z,1.47
2017-07-08T12:30:42.141Z,2.70
2017-07-08T12:33:10.457Z,4.80
2017-07-08T12:35:38.791Z,3.57
2017-07-08T12:38:07.106Z,1.30
2017-07-08T12:40:35.438Z,2.30
2017-07-08T12:43:04.707Z,1.77
2017-07-08T12:45:33.034Z,1.50
2017-07-08T12:48:01.344Z,1.30
2017-07-08T12:50:29.689Z,3.73
2017-07-08T12:52:58.018Z,2.50
2017-07-08T12:55:26.349Z,1.07
2017-07-08T12:57:54.671Z,1.10
2017-07-08T13:00:23.011Z,4.00
2017-07-08T13:02:51.364Z,1.50
2017-07-08T13:05:19.684Z,1.40
2017-07-08T13:07:48.022Z,1.93
2017-07-08T13:10:16.360Z,2.50
2017-07-08T13:12:44.682Z,2.30
2017-07-08T13:15:13.027Z,1.57
2017-07-08T13:17:41.357Z,1.30
2017-07-08T13:20:09.677Z,5.03
2017-07-08T13:22:38.019Z,2.50
2017-07-08T13:25:06.329Z,1.20
2017-07-08T13:27:34.639Z,2.53
2017-07-08T13:30:02.971Z,3.43
2017-07-08T13:32:33.280Z,3.67
2017-07-08T13:35:01.601Z,1.87
2017-07-08T13:37:29.909Z,1.97
2017-07-08T13:39:58.245Z,1.63
2017-07-08T13:42:26.558Z,8.73
2017-07-08T13:44:54.913Z,1.20
2017-07-08T13:47:23.217Z,1.80
2017-07-08T13:49:51.567Z,4.10
2017-07-08T13:52:19.900Z,2.83
2017-07-08T13:54:48.203Z,2.60
2017-07-08T13:57:16.525Z,2.40
2017-07-08T13:59:44.834Z,1.93
2017-07-08T14:02:13.160Z,1.60
2017-07-08T14:04:41.685Z,4.30
2017-07-08T14:07:10.026Z,2.63
2017-07-08T14:09:38.341Z,1.43
2017-07-08T14:12:06.673Z,6.40
2017-07-08T14:14:34.974Z,8.23
2017-07-08T14:17:03.274Z,1.40
2017-07-08T14:19:31.606Z,2.60
2017-07-08T14:21:59.912Z,4.70
2017-07-08T14:24:28.253Z,1.83
2017-07-08T14:26:56.554Z,1.40
2017-07-08T14:29:25.834Z,3.70
2017-07-08T14:31:55.119Z,3.40
2017-07-08T14:34:23.453Z,2.40
2017-07-08T14:36:51.753Z,2.50
2017-07-08T14:39:20.099Z,6.17
2017-07-08T14:41:50.217Z,5.83
2017-07-08T14:44:18.550Z,5.43
2017-07-08T14:46:46.873Z,2.20
2017-07-08T14:49:18.374Z,1.70
2017-07-08T14:51:46.701Z,6.07
2017-07-08T14:54:15.015Z,2.50
2017-07-08T14:56:43.358Z,3.63
2017-07-08T14:59:11.667Z,6.63
2017-07-08T15:01:39.992Z,2.23
2017-07-08T15:04:08.323Z,2.40
2017-07-08T15:06:37.710Z,1.33
2017-07-08T15:09:06.020Z,1.63
2017-07-08T15:11:34.335Z,2.70
2017-07-08T15:14:02.686Z,1.70
2017-07-08T15:16:31.975Z,3.83
2017-07-08T15:19:00.310Z,6.40
2017-07-08T15:21:28.626Z,2.93
2017-07-08T15:23:56.962Z,2.07
2017-07-08T15:26:25.327Z,6.97
2017-07-08T15:28:53.641Z,2.50
2017-07-08T15:31:21.957Z,5.07
2017-07-08T15:33:50.304Z,4.90
2017-07-08T15:36:18.609Z,1.40
2017-07-08T15:38:47.914Z,1.60
2017-07-08T15:41:16.233Z,2.03
2017-07-08T15:43:44.542Z,3.50
2017-07-08T15:46:12.929Z,1.80
2017-07-08T15:48:41.232Z,1.47
2017-07-08T15:51:09.584Z,1.60
2017-07-08T15:53:37.899Z,4.43
2017-07-08T15:56:06.229Z,3.53
2017-07-08T15:58:34.538Z,2.33
2017-07-08T16:01:02.882Z,1.63
2017-07-08T16:03:31.190Z,3.17
2017-07-08T16:05:59.514Z,3.33
2017-07-08T16:08:27.849Z,2.07
2017-07-08T16:10:56.150Z,3.33
2017-07-08T16:13:24.486Z,1.23
2017-07-08T16:15:52.801Z,1.83
2017-07-08T16:18:22.085Z,7.33
2017-07-08T16:20:50.390Z,1.73
2017-07-08T16:23:18.722Z,2.80
2017-07-08T16:25:47.029Z,1.83
2017-07-08T16:28:15.370Z,1.80
2017-07-08T16:30:43.686Z,3.00
2017-07-08T16:33:12.946Z,1.57
2017-07-08T16:35:41.276Z,3.40
2017-07-08T16:38:09.620Z,1.53
2017-07-08T16:40:37.936Z,1.50
2017-07-08T16:43:06.253Z,1.87
2017-07-08T16:45:34.582Z,3.17
2017-07-08T16:48:03.840Z,2.03
2017-07-08T16:50:32.172Z,2.33
2017-07-08T16:53:00.488Z,2.00
2017-07-08T16:55:28.825Z,1.87
2017-07-08T16:57:57.150Z,2.83
2017-07-08T17:00:25.474Z,1.33
2017-07-08T17:02:53.813Z,6.70
2017-07-08T17:05:22.117Z,1.83
2017-07-08T17:07:50.441Z,2.10
2017-07-08T17:10:18.736Z,5.90
2017-07-08T17:12:47.070Z,2.20
2017-07-08T17:15:15.391Z,1.90
2017-07-08T17:17:43.719Z,2.40
2017-07-08T17:20:12.025Z,3.73
2017-07-08T17:22:40.363Z,3.17
2017-07-08T17:25:09.628Z,1.53
2017-07-08T17:27:37.942Z,1.83
2017-07-08T17:30:06.267Z,2.13
2017-07-08T17:32:34.571Z,2.00
2017-07-08T17:35:02.922Z,2.03
2017-07-08T17:37:31.236Z,2.40
2017-07-08T17:39:59.575Z,1.53
2017-07-08T17:42:27.902Z,2.23
2017-07-08T17:44:56.243Z,1.93
2017-07-08T17:47:24.550Z,1.40
2017-07-08T17:50:14.426Z,6.03
2017-07-08T17:55:39.842Z,7.20
2017-07-08T17:58:08.171Z,2.10
2017-07-08T18:00:36.490Z,7.60
2017-07-08T18:03:04.834Z,2.50
2017-07-08T18:05:33.166Z,1.80
2017-07-08T18:08:01.486Z,2.43
2017-07-08T18:10:29.805Z,2.30
2017-07-08T18:12:59.134Z,3.17
2017-07-08T18:18:28.153Z,19.00
2017-07-08T18:20:56.468Z,4.23
2017-07-08T18:23:24.793Z,2.20
2017-07-08T18:25:53.105Z,12.00
2017-07-08T18:28:21.530Z,2.57
2017-07-08T18:30:49.838Z,5.00
2017-07-08T18:36:17.867Z,3.13
2017-07-08T18:38:46.179Z,4.27
2017-07-08T18:41:14.513Z,3.50
2017-07-08T18:43:42.833Z,6.93
2017-07-08T18:46:11.166Z,1.90
2017-07-08T18:48:39.469Z,2.20
2017-07-08T18:51:07.805Z,4.03
2017-07-08T18:53:36.118Z,3.37
2017-07-08T18:56:04.470Z,4.90
2017-07-08T18:58:32.780Z,2.80
2017-07-08T19:01:01.092Z,2.20
2017-07-08T19:03:29.429Z,2.37
2017-07-08T19:05:57.742Z,1.90
2017-07-08T19:08:26.085Z,2.20
2017-07-08T19:10:54.389Z,1.77
2017-07-08T19:13:22.720Z,3.50
2017-07-08T19:15:51.035Z,5.07
2017-07-08T19:18:19.377Z,3.23
2017-07-08T19:20:47.712Z,2.30
2017-07-08T19:23:16.027Z,2.23
2017-07-08T19:25:44.368Z,5.17
2017-07-08T19:28:12.676Z,4.40
2017-07-08T19:30:41.017Z,5.57
2017-07-08T19:33:09.330Z,4.70
2017-07-08T19:35:37.678Z,2.23
2017-07-08T19:38:05.982Z,2.77
2017-07-08T19:40:34.319Z,4.37
2017-07-08T19:43:02.625Z,5.33
2017-07-08T19:45:30.958Z,2.93
2017-07-08T19:47:59.271Z,2.90
2017-07-08T19:50:27.612Z,3.57
2017-07-08T19:52:55.950Z,6.73
2017-07-08T19:55:24.260Z,5.10
2017-07-08T19:57:52.597Z,4.00
2017-07-08T20:00:20.902Z,5.73
2017-07-08T20:02:49.245Z,2.97
2017-07-08T20:05:17.545Z,5.23
2017-07-08T20:07:45.878Z,4.17
2017-07-08T20:10:14.178Z,4.93
2017-07-08T20:12:42.519Z,3.40
2017-07-08T20:15:10.826Z,5.37
2017-07-08T20:17:39.137Z,5.43
2017-07-08T20:20:07.469Z,6.20
2017-07-08T20:22:35.763Z,4.40
2017-07-08T20:25:04.101Z,3.93
2017-07-08T20:27:32.407Z,6.70
2017-07-08T20:30:00.737Z,5.20
2017-07-08T20:32:29.066Z,2.87
2017-07-08T20:34:57.389Z,4.80
2017-07-08T20:37:25.697Z,3.47
2017-07-08T20:39:54.038Z,4.53
2017-07-08T20:42:22.349Z,3.10
2017-07-08T20:44:50.657Z,3.97
2017-07-08T20:47:18.994Z,6.20
2017-07-08T20:49:47.299Z,5.53
2017-07-08T20:52:15.632Z,3.30
2017-07-08T20:54:43.935Z,3.53
2017-07-08T20:57:12.261Z,8.33
2017-07-08T20:59:40.567Z,5.60
2017-07-08T21:02:08.911Z,3.47
2017-07-08T21:04:37.231Z,4.30
2017-07-08T21:07:15.842Z,6.30
2017-07-08T21:09:44.151Z,6.43
2017-07-08T21:12:12.458Z,6.30
2017-07-08T21:14:40.791Z,6.77
2017-07-08T21:17:09.099Z,3.87
2017-07-08T21:19:37.429Z,8.30
2017-07-08T21:22:06.656Z,3.80
2017-07-08T21:24:34.994Z,5.87
2017-07-08T21:27:03.296Z,17.30
2017-07-08T21:29:31.611Z,4.07
2017-07-08T21:31:59.944Z,19.67
2017-07-08T21:34:28.250Z,3.80
2017-07-08T21:36:56.577Z,4.03
2017-07-08T21:39:24.878Z,5.40
2017-07-08T21:44:53.053Z,3.27
2017-07-08T21:47:21.388Z,3.10
2017-07-08T21:49:49.696Z,3.27
2017-07-08T21:52:18.041Z,6.00
2017-07-08T21:54:46.352Z,5.90
2017-07-08T21:57:14.657Z,4.40
2017-07-08T21:59:42.976Z,3.87
2017-07-08T22:02:11.282Z,4.40
2017-07-08T22:04:39.611Z,4.47
2017-07-08T22:07:07.925Z,6.20
2017-07-08T22:09:36.253Z,4.33
2017-07-08T22:12:04.563Z,7.40
2017-07-08T22:14:32.897Z,4.80
2017-07-08T22:17:01.197Z,7.10
2017-07-08T22:19:29.514Z,4.43
2017-07-08T22:21:57.844Z,9.30
2017-07-08T22:24:26.525Z,8.67
2017-07-08T22:26:54.894Z,7.93
2017-07-08T22:29:23.250Z,4.87
2017-07-08T22:31:51.616Z,3.90
2017-07-08T22:34:19.965Z,4.23
2017-07-08T22:36:48.328Z,5.10
2017-07-08T22:39:16.668Z,14.27
2017-07-08T22:41:45.050Z,4.60
2017-07-08T22:44:18.803Z,4.97
2017-07-08T22:46:47.182Z,7.63
2017-07-08T22:49:15.531Z,7.43
2017-07-08T22:51:43.874Z,11.87
2017-07-08T22:54:12.238Z,10.73
2017-07-08T22:56:40.593Z,6.27
2017-07-08T22:59:08.966Z,5.83
2017-07-08T23:01:47.406Z,4.80
2017-07-08T23:04:15.768Z,7.43
2017-07-08T23:06:44.121Z,6.63
2017-07-08T23:09:12.501Z,5.87
2017-07-08T23:11:40.842Z,5.73
2017-07-08T23:14:09.189Z,5.63
2017-07-08T23:16:37.572Z,5.23
2017-07-08T23:19:05.916Z,11.10
2017-07-08T23:21:34.322Z,5.53
2017-07-08T23:24:02.668Z,6.00
2017-07-08T23:26:31.036Z,9.93
2017-07-08T23:28:59.383Z,12.97
2017-07-08T23:31:27.755Z,9.20
2017-07-08T23:33:56.107Z,6.00
2017-07-08T23:36:24.477Z,7.73
2017-07-08T23:38:52.839Z,13.30
2017-07-08T23:41:21.195Z,8.13
2017-07-08T23:43:49.585Z,10.90
2017-07-08T23:46:17.935Z,8.77
2017-07-08T23:51:46.031Z,11.30
2017-07-08T23:54:14.411Z,13.03
2017-07-08T23:56:42.766Z,6.53
2017-07-08T23:59:11.149Z,8.13
